Time;durP1;ratioP1;P1;durP2;ratioP2;P2;SDS_P1;SDS_P2;PMS_P1;PMS_P2;Temp;Humidity;BMP_temperature;BMP_pressure;BME280_temperature;BME280_humidity;BME280_pressure;Samples;Min_cycle;Max_cycle;Signal;HPM_P1;HPM_P2
2022/01/26 00:06:08;;;;;;;0.40;0.20;;;-0.50;99.90;;;;;;4977758;28;20628;-74
2022/01/26 00:08:33;;;;;;;0.40;0.30;;;-0.50;99.90;;;;;;4980317;28;20411;-74
2022/01/26 00:10:59;;;;;;;0.50;0.50;;;-0.50;99.90;;;;;;4981928;28;20743;-74
2022/01/26 00:13:25;;;;;;;0.63;0.63;;;-0.50;99.90;;;;;;4980354;28;20506;-75
2022/01/26 00:15:51;;;;;;;0.40;0.40;;;-0.50;99.90;;;;;;4984291;28;20397;-74
2022/01/26 00:18:20;;;;;;;0.40;0.20;;;-0.40;99.90;;;;;;4983456;28;20399;-74
2022/01/26 00:20:54;;;;;;;0.40;0.40;;;-0.40;99.90;;;;;;4984927;28;20397;-75
2022/01/26 00:26:13;;;;;;;0.40;0.20;;;-0.40;99.90;;;;;;4983363;28;20378;-74
2022/01/26 00:38:33;;;;;;;0.70;0.60;;;-0.40;99.90;;;;;;4982673;28;20796;-75
2022/01/26 00:40:03;;;;;;;0.90;0.90;;;-0.40;99.90;;;;;;4979511;28;20395;-74
2022/01/26 00:42:34;;;;;;;0.40;0.20;;;-0.40;99.90;;;;;;4983626;28;20391;-74
2022/01/26 00:45:00;;;;;;;0.40;0.20;;;-0.40;99.90;;;;;;4983875;28;20945;-74
2022/01/26 00:47:25;;;;;;;0.40;0.33;;;-0.30;99.90;;;;;;4984573;28;20386;-74
2022/01/26 00:49:56;;;;;;;0.40;0.20;;;-0.40;99.90;;;;;;4984345;28;20723;-74
2022/01/26 00:52:30;;;;;;;0.40;0.20;;;-0.40;99.90;;;;;;4984090;28;20414;-74
2022/01/26 00:54:55;;;;;;;0.40;0.20;;;-0.40;99.90;;;;;;4981536;28;20707;-75
2022/01/26 00:57:21;;;;;;;0.40;0.20;;;-0.40;99.90;;;;;;4983847;28;20386;-74
2022/01/26 00:59:47;;;;;;;0.40;0.20;;;-0.40;99.90;;;;;;4985150;28;20794;-75
2022/01/26 01:02:13;;;;;;;0.40;0.30;;;-0.50;99.90;;;;;;4982000;28;20388;-74
2022/01/26 01:04:39;;;;;;;0.40;0.20;;;-0.50;99.90;;;;;;4981518;28;21784;-75
2022/01/26 01:07:06;;;;;;;0.40;0.20;;;-0.50;99.90;;;;;;4987191;28;21011;-74
2022/01/26 01:09:34;;;;;;;0.40;0.20;;;-0.50;99.90;;;;;;4978586;28;20455;-74
2022/01/26 01:12:02;;;;;;;0.40;0.20;;;-0.50;99.90;;;;;;4979995;28;20398;-74
2022/01/26 01:14:30;;;;;;;0.70;0.70;;;-0.50;99.90;;;;;;4985364;28;20395;-74
2022/01/26 01:17:00;;;;;;;0.40;0.30;;;-0.50;99.90;;;;;;4981259;28;20387;-74
2022/01/26 01:19:35;;;;;;;0.40;0.20;;;-0.60;99.90;;;;;;4981423;28;20427;-75
2022/01/26 01:25:39;;;;;;;0.40;0.20;;;-0.60;99.90;;;;;;4959545;28;20409;-75
2022/01/26 01:32:52;;;;;;;0.40;0.30;;;-1.00;99.90;;;;;;4986964;28;20387;-74
2022/01/26 01:35:19;;;;;;;0.40;0.20;;;-0.80;99.90;;;;;;4979665;28;20403;-75
2022/01/26 01:37:45;;;;;;;0.40;0.30;;;-0.90;99.90;;;;;;4984069;28;20473;-74
2022/01/26 01:40:11;;;;;;;0.40;0.20;;;-0.90;99.90;;;;;;4981901;28;20408;-74
2022/01/26 01:42:37;;;;;;;0.60;0.60;;;-0.80;99.90;;;;;;4981949;28;20422;-74
2022/01/26 01:45:04;;;;;;;0.40;0.20;;;-0.80;99.90;;;;;;4984777;28;20894;-75
2022/01/26 01:47:29;;;;;;;0.40;0.20;;;-0.80;99.90;;;;;;4986213;28;20425;-75
2022/01/26 01:49:55;;;;;;;0.40;0.20;;;-0.80;99.90;;;;;;4985548;28;20383;-74
2022/01/26 01:52:21;;;;;;;0.40;0.20;;;-0.90;99.90;;;;;;4985397;28;20375;-74
2022/01/26 01:54:53;;;;;;;0.40;0.30;;;-0.90;99.90;;;;;;4986450;28;20419;-74
2022/01/26 01:57:24;;;;;;;0.40;0.20;;;-0.90;99.90;;;;;;4980784;28;20840;-75
2022/01/26 01:59:51;;;;;;;0.40;0.20;;;-0.80;99.90;;;;;;4985833;28;20417;-74
2022/01/26 02:02:16;;;;;;;0.50;0.50;;;-0.70;99.90;;;;;;4985187;28;20388;-75
2022/01/26 02:04:42;;;;;;;0.50;0.50;;;-0.70;99.90;;;;;;4983478;28;20416;-75
2022/01/26 02:07:10;;;;;;;1.50;0.80;;;-0.80;99.90;;;;;;4981784;28;20933;-74
2022/01/26 02:09:35;;;;;;;0.40;0.30;;;-0.90;99.90;;;;;;4983539;28;20394;-74
2022/01/26 02:12:12;;;;;;;0.80;0.80;;;-1.20;99.90;;;;;;4985257;28;20387;-74
2022/01/26 02:14:45;;;;;;;0.40;0.20;;;-1.30;99.90;;;;;;4983976;28;21199;-75
2022/01/26 02:20:10;;;;;;;0.40;0.40;;;-1.70;99.90;;;;;;4985717;28;20394;-74
2022/01/26 02:55:55;;;;;;;0.40;0.20;;;-2.20;99.90;;;;;;4983767;28;20398;-74
2022/01/26 03:03:51;;;;;;;0.80;0.50;;;-2.30;99.90;;;;;;4982695;28;20852;-74
2022/01/26 03:06:23;;;;;;;0.40;0.20;;;-2.20;99.90;;;;;;4978219;28;20443;-74
2022/01/26 03:08:55;;;;;;;0.40;0.40;;;-2.10;99.90;;;;;;4978780;28;20732;-75
2022/01/26 03:11:26;;;;;;;0.40;0.20;;;-2.10;99.90;;;;;;4983381;28;20395;-74
2022/01/26 03:13:59;;;;;;;0.40;0.30;;;-2.20;99.90;;;;;;4977498;28;20470;-74
2022/01/26 03:16:43;;;;;;;0.40;0.20;;;-2.30;99.90;;;;;;4981415;28;20528;-75
2022/01/26 03:29:57;;;;;;;0.40;0.20;;;-2.30;99.90;;;;;;4980157;28;20475;-74
2022/01/26 03:35:15;;;;;;;0.40;0.30;;;-2.20;99.90;;;;;;4983747;28;20417;-74
2022/01/26 03:37:50;;;;;;;0.50;0.50;;;-2.20;99.90;;;;;;4978805;28;20421;-75
2022/01/26 03:40:15;;;;;;;0.40;0.20;;;-2.20;99.90;;;;;;4975972;28;20467;-75
2022/01/26 03:42:41;;;;;;;2.00;1.20;;;-2.20;99.90;;;;;;4978388;28;20414;-74
2022/01/26 03:45:08;;;;;;;0.40;0.30;;;-2.20;99.90;;;;;;4983085;28;20419;-74
2022/01/26 03:47:34;;;;;;;2.50;1.00;;;-2.10;99.90;;;;;;4983136;28;20510;-75
2022/01/26 03:49:59;;;;;;;0.40;0.20;;;-2.10;99.90;;;;;;4983298;28;20475;-74
2022/01/26 03:52:25;;;;;;;1.60;0.80;;;-2.10;99.90;;;;;;4981686;28;20391;-75
2022/01/26 03:54:50;;;;;;;0.77;0.77;;;-2.10;99.90;;;;;;4982614;28;20394;-74
2022/01/26 03:57:16;;;;;;;0.90;0.90;;;-2.20;99.90;;;;;;4982027;28;20383;-74
2022/01/26 03:59:42;;;;;;;0.50;0.40;;;-2.20;99.90;;;;;;4982841;28;20421;-74
2022/01/26 04:02:08;;;;;;;0.60;0.60;;;-2.10;99.90;;;;;;4996272;28;20962;-74
2022/01/26 04:04:41;;;;;;;0.40;0.30;;;-2.20;99.90;;;;;;4986011;28;20431;-75
2022/01/26 04:07:07;;;;;;;0.40;0.30;;;-2.20;99.90;;;;;;4985584;28;20419;-75
2022/01/26 04:09:33;;;;;;;0.40;0.20;;;-2.30;99.90;;;;;;4982341;28;20396;-74
2022/01/26 04:11:59;;;;;;;0.40;0.30;;;-2.30;99.90;;;;;;4984705;28;20519;-73
2022/01/26 04:14:29;;;;;;;0.50;0.50;;;-2.20;99.90;;;;;;4983346;28;20400;-73
2022/01/26 04:16:54;;;;;;;0.40;0.37;;;-2.10;99.90;;;;;;4984475;28;20383;-74
2022/01/26 04:19:21;;;;;;;0.40;0.20;;;-2.10;99.90;;;;;;4983164;28;20399;-75
2022/01/26 04:22:03;;;;;;;0.40;0.20;;;-2.00;99.90;;;;;;4984581;28;20402;-74
2022/01/26 04:24:43;;;;;;;0.40;0.40;;;-2.00;99.90;;;;;;4981213;28;20420;-74
2022/01/26 04:29:37;;;;;;;0.40;0.20;;;-1.90;99.90;;;;;;4983444;28;20394;-73
2022/01/26 04:32:06;;;;;;;0.40;0.27;;;-2.00;99.90;;;;;;4985605;28;20378;-73
2022/01/26 04:34:33;;;;;;;0.40;0.30;;;-2.10;99.90;;;;;;4982363;28;20956;-74
2022/01/26 04:37:20;;;;;;;0.40;0.40;;;-2.10;99.90;;;;;;4973044;28;20419;-73
2022/01/26 04:39:52;;;;;;;0.47;0.32;;;-2.10;99.90;;;;;;4974050;28;20416;-73
2022/01/26 04:42:27;;;;;;;0.40;0.20;;;-2.10;99.90;;;;;;4972286;28;20426;-73
2022/01/26 04:45:01;;;;;;;0.40;0.20;;;-2.00;99.90;;;;;;4973411;28;20423;-74
2022/01/26 04:47:27;;;;;;;0.40;0.20;;;-1.90;99.90;;;;;;4973303;28;20425;-74
2022/01/26 04:49:52;;;;;;;1.60;0.70;;;-1.90;99.90;;;;;;4973516;28;20384;-74
2022/01/26 04:52:18;;;;;;;6.10;1.00;;;-1.80;99.90;;;;;;4971924;28;20487;-74
2022/01/26 04:54:44;;;;;;;0.40;0.20;;;-1.90;99.90;;;;;;4973005;28;20388;-74
2022/01/26 04:57:09;;;;;;;0.40;0.20;;;-2.00;99.90;;;;;;4972060;28;20384;-74
2022/01/26 04:59:35;;;;;;;2.50;1.80;;;-1.80;99.90;;;;;;4988520;28;20407;-74
2022/01/26 05:02:00;;;;;;;0.40;0.20;;;-1.70;99.90;;;;;;4992613;28;20873;-73
2022/01/26 05:04:26;;;;;;;0.40;0.20;;;-1.70;99.90;;;;;;4991650;28;20817;-74
2022/01/26 05:06:52;;;;;;;0.40;0.20;;;-1.80;99.90;;;;;;4991423;28;20417;-74
2022/01/26 05:09:19;;;;;;;0.40;0.30;;;-2.00;99.90;;;;;;4989746;28;20851;-75
2022/01/26 05:11:48;;;;;;;0.60;0.50;;;-2.00;99.90;;;;;;4991535;28;20402;-74
2022/01/26 05:14:13;;;;;;;0.40;0.30;;;-1.90;99.90;;;;;;4990444;28;20429;-74
2022/01/26 05:16:39;;;;;;;0.40;0.20;;;-1.90;99.90;;;;;;4990915;28;20425;-74
2022/01/26 05:19:05;;;;;;;0.40;0.20;;;-1.80;99.90;;;;;;4991267;28;20386;-75
2022/01/26 05:21:32;;;;;;;0.50;0.40;;;-1.80;99.90;;;;;;4991249;28;20390;-75
2022/01/26 05:23:57;;;;;;;0.40;0.20;;;-1.80;99.90;;;;;;4991346;28;20783;-75
2022/01/26 05:26:24;;;;;;;0.40;0.20;;;-1.70;99.90;;;;;;4990591;28;20397;-75
2022/01/26 05:28:50;;;;;;;0.40;0.20;;;-1.80;99.90;;;;;;4989748;28;20395;-75
2022/01/26 05:31:16;;;;;;;0.40;0.30;;;-1.80;99.90;;;;;;4991694;28;20736;-75
2022/01/26 05:33:42;;;;;;;0.40;0.20;;;-1.70;99.90;;;;;;4989829;28;20866;-75
2022/01/26 05:36:08;;;;;;;0.40;0.20;;;-1.70;99.90;;;;;;4991934;28;20410;-75
2022/01/26 05:38:33;;;;;;;1.20;1.10;;;-1.60;99.90;;;;;;4991526;28;20405;-75
2022/01/26 05:41:01;;;;;;;0.70;0.60;;;-1.60;99.90;;;;;;4991194;28;20458;-75
2022/01/26 05:43:32;;;;;;;0.47;0.30;;;-1.60;99.90;;;;;;4991510;28;20400;-75
2022/01/26 05:46:04;;;;;;;0.40;0.20;;;-1.70;99.90;;;;;;4990588;28;20440;-75
2022/01/26 05:48:30;;;;;;;0.40;0.20;;;-1.80;99.90;;;;;;4991469;28;20386;-75
2022/01/26 05:51:04;;;;;;;0.55;0.55;;;-1.60;99.90;;;;;;4990837;28;20444;-75
2022/01/26 05:53:31;;;;;;;0.40;0.30;;;-1.40;99.90;;;;;;4991026;28;20537;-75
2022/01/26 05:55:58;;;;;;;0.40;0.40;;;-1.40;99.90;;;;;;4990599;28;20390;-75
2022/01/26 05:58:24;;;;;;;1.50;0.90;;;-1.60;99.90;;;;;;4991452;28;20383;-75
2022/01/26 06:00:50;;;;;;;0.40;0.20;;;-1.60;99.90;;;;;;4991061;28;20563;-76
2022/01/26 06:03:16;;;;;;;0.70;0.70;;;-1.50;99.90;;;;;;4991213;28;20747;-75
2022/01/26 06:05:41;;;;;;;0.40;0.40;;;-1.50;99.90;;;;;;4927420;28;1841269;-74
2022/01/26 06:08:07;;;;;;;0.40;0.20;;;-1.30;99.90;;;;;;4991356;28;20433;-75
2022/01/26 06:10:33;;;;;;;0.40;0.20;;;-1.40;99.90;;;;;;4991855;28;20461;-75
2022/01/26 06:12:59;;;;;;;0.57;0.57;;;-1.40;99.90;;;;;;4990873;28;20850;-76
2022/01/26 06:15:25;;;;;;;0.40;0.40;;;-1.50;99.90;;;;;;4992125;28;20534;-75
2022/01/26 06:17:51;;;;;;;0.40;0.30;;;-1.40;99.90;;;;;;4992002;28;20390;-75
2022/01/26 06:20:17;;;;;;;0.40;0.20;;;-1.40;99.90;;;;;;4991181;28;20391;-75
2022/01/26 06:22:42;;;;;;;0.80;0.70;;;-1.30;99.90;;;;;;4992121;28;20397;-75
2022/01/26 06:25:09;;;;;;;0.40;0.20;;;-1.40;99.90;;;;;;4973804;28;20419;-75
2022/01/26 06:27:36;;;;;;;0.70;0.50;;;-1.50;99.90;;;;;;4990529;28;20879;-76
2022/01/26 06:30:04;;;;;;;0.50;0.40;;;-1.40;99.90;;;;;;4991951;28;20414;-73
2022/01/26 06:32:30;;;;;;;0.60;0.60;;;-1.40;99.90;;;;;;4990008;28;20390;-74
2022/01/26 06:34:56;;;;;;;0.40;0.20;;;-1.40;99.90;;;;;;4991989;28;20708;-74
2022/01/26 06:37:22;;;;;;;0.57;0.57;;;-1.20;99.90;;;;;;4991024;28;20409;-74
2022/01/26 06:39:48;;;;;;;0.40;0.20;;;-1.30;99.90;;;;;;4991854;28;20398;-74
2022/01/26 06:42:17;;;;;;;0.80;0.80;;;-1.20;99.90;;;;;;4991633;28;20393;-74
2022/01/26 06:49:52;;;;;;;0.67;0.47;;;-1.40;99.90;;;;;;4991646;28;20375;-74
2022/01/26 06:52:19;;;;;;;0.40;0.30;;;-1.40;99.90;;;;;;4991297;28;20468;-74
2022/01/26 06:54:45;;;;;;;0.40;0.30;;;-1.30;99.90;;;;;;4990824;28;21060;-74
2022/01/26 06:57:10;;;;;;;1.00;1.00;;;-1.30;99.90;;;;;;4991919;28;20504;-75
2022/01/26 06:59:36;;;;;;;0.40;0.20;;;-1.20;99.90;;;;;;4990547;28;20787;-75
2022/01/26 07:02:03;;;;;;;0.60;0.40;;;-1.20;99.90;;;;;;4991470;28;20465;-74
2022/01/26 07:04:28;;;;;;;0.40;0.20;;;-1.50;99.90;;;;;;4991076;28;20437;-75
2022/01/26 07:06:55;;;;;;;4.00;1.40;;;-1.20;99.90;;;;;;4989328;28;20418;-74
2022/01/26 07:09:21;;;;;;;0.40;0.20;;;-1.40;99.90;;;;;;4991487;28;20398;-75
2022/01/26 07:11:47;;;;;;;0.40;0.20;;;-1.40;99.90;;;;;;4990584;28;20716;-75
2022/01/26 07:14:22;;;;;;;0.40;0.20;;;-1.20;99.90;;;;;;4991316;28;20386;-75
2022/01/26 07:22:16;;;;;;;0.40;0.20;;;-1.10;99.90;;;;;;4993628;28;20402;-75
2022/01/26 07:24:42;;;;;;;0.40;0.20;;;-1.20;99.90;;;;;;4994996;28;20882;-76
2022/01/26 07:27:09;;;;;;;0.70;0.70;;;-1.20;99.90;;;;;;4994435;28;20775;-75
2022/01/26 07:29:35;;;;;;;0.40;0.20;;;-1.30;99.90;;;;;;4995099;28;20701;-75
2022/01/26 07:32:03;;;;;;;0.40;0.30;;;-1.30;99.90;;;;;;4994248;28;20389;-75
2022/01/26 07:34:29;;;;;;;0.50;0.50;;;-1.10;99.90;;;;;;4994806;28;20901;-75
2022/01/26 07:36:59;;;;;;;0.40;0.30;;;-1.10;99.90;;;;;;4994362;28;20399;-75
2022/01/26 07:39:47;;;;;;;0.50;0.50;;;-1.20;99.90;;;;;;4995002;28;20413;-75
2022/01/26 07:42:14;;;;;;;0.40;0.20;;;-1.60;99.90;;;;;;4994276;28;20470;-75
2022/01/26 07:44:41;;;;;;;0.40;0.20;;;-1.60;99.90;;;;;;4994748;28;20501;-75
2022/01/26 07:47:07;;;;;;;3.22;1.75;;;-1.60;99.90;;;;;;4994184;28;20383;-75
2022/01/26 07:49:33;;;;;;;0.40;0.20;;;-1.70;99.90;;;;;;4993433;28;20520;-75
2022/01/26 07:51:59;;;;;;;0.40;0.30;;;-1.50;99.90;;;;;;4993168;28;20857;-75
2022/01/26 07:54:25;;;;;;;1.40;0.70;;;-1.60;99.90;;;;;;4994430;28;20492;-75
2022/01/26 07:56:50;;;;;;;0.80;0.50;;;-1.40;99.90;;;;;;4994612;28;20393;-75
2022/01/26 07:59:16;;;;;;;0.40;0.30;;;-1.40;99.90;;;;;;4981379;28;20845;-75
2022/01/26 08:01:42;;;;;;;0.40;0.20;;;-1.40;99.90;;;;;;4975591;28;20396;-76
2022/01/26 08:04:08;;;;;;;0.40;0.20;;;-1.40;99.90;;;;;;4974070;28;20725;-76
2022/01/26 08:06:34;;;;;;;0.40;0.30;;;-1.30;99.90;;;;;;4974782;28;20470;-76
2022/01/26 08:09:00;;;;;;;0.40;0.20;;;-1.10;99.90;;;;;;4975009;28;20392;-76
2022/01/26 08:11:26;;;;;;;0.50;0.50;;;-1.20;99.90;;;;;;4974020;28;20410;-76
2022/01/26 08:13:52;;;;;;;0.40;0.30;;;-1.40;99.90;;;;;;4974501;28;20865;-75
2022/01/26 08:16:18;;;;;;;0.40;0.40;;;-1.40;99.90;;;;;;4974475;28;20380;-76
2022/01/26 08:18:44;;;;;;;0.40;0.20;;;-1.30;99.90;;;;;;4974088;28;20804;-76
2022/01/26 08:21:10;;;;;;;0.40;0.20;;;-1.30;99.90;;;;;;4974595;28;20392;-75
2022/01/26 08:23:37;;;;;;;0.95;0.95;;;-1.20;99.90;;;;;;4974055;28;20966;-76
2022/01/26 08:26:04;;;;;;;0.40;0.20;;;-1.10;99.90;;;;;;4974705;28;20388;-76
2022/01/26 08:28:37;;;;;;;0.70;0.50;;;-1.00;99.90;;;;;;4973511;28;20861;-76
2022/01/26 08:31:03;;;;;;;0.40;0.20;;;-1.10;99.90;;;;;;4974384;28;20482;-76
2022/01/26 08:33:30;;;;;;;0.50;0.50;;;-1.20;99.90;;;;;;4972980;28;20464;-76
2022/01/26 08:35:56;;;;;;;0.40;0.20;;;-1.30;99.90;;;;;;4974372;28;20454;-76
2022/01/26 08:38:23;;;;;;;0.40;0.20;;;-1.20;99.90;;;;;;4973993;28;20381;-77
2022/01/26 08:40:49;;;;;;;0.50;0.50;;;-1.20;99.90;;;;;;4974555;28;20847;-76
2022/01/26 08:43:15;;;;;;;0.40;0.20;;;-1.00;99.90;;;;;;4974434;28;20488;-76
2022/01/26 08:45:41;;;;;;;0.40;0.35;;;-1.20;99.90;;;;;;4973405;28;20443;-76
2022/01/26 08:48:08;;;;;;;0.70;0.70;;;-0.90;99.90;;;;;;4974342;28;20395;-76
2022/01/26 08:50:34;;;;;;;0.80;0.70;;;-1.00;99.90;;;;;;4971642;28;20950;-76
2022/01/26 08:53:00;;;;;;;0.60;0.60;;;-1.10;99.90;;;;;;4974275;28;20392;-76
2022/01/26 08:55:26;;;;;;;1.30;0.50;;;-0.90;99.90;;;;;;4972782;28;20405;-76
2022/01/26 08:57:52;;;;;;;0.40;0.20;;;-1.00;99.90;;;;;;4975090;28;20856;-76
2022/01/26 09:00:18;;;;;;;1.10;0.73;;;-1.30;99.90;;;;;;4993130;28;20406;-76
2022/01/26 09:02:44;;;;;;;0.40;0.20;;;-1.10;99.90;;;;;;4992704;28;20379;-76
2022/01/26 09:05:10;;;;;;;0.40;0.20;;;-0.90;99.90;;;;;;4992801;28;20422;-76
2022/01/26 09:07:37;;;;;;;0.50;0.50;;;-0.80;99.90;;;;;;4992686;28;20386;-76
2022/01/26 09:10:06;;;;;;;0.40;0.20;;;-0.80;99.90;;;;;;4993516;28;20390;-76
2022/01/26 09:12:34;;;;;;;0.57;0.50;;;-1.00;99.90;;;;;;4993347;28;20469;-76
2022/01/26 09:15:04;;;;;;;0.40;0.40;;;-0.90;99.90;;;;;;4992780;28;20383;-75
2022/01/26 09:17:32;;;;;;;0.40;0.20;;;-0.80;99.90;;;;;;4993284;28;20875;-76
2022/01/26 09:20:00;;;;;;;0.40;0.20;;;-0.80;99.90;;;;;;4992207;28;20386;-76
2022/01/26 09:22:27;;;;;;;0.40;0.30;;;-1.00;99.90;;;;;;4991468;28;20461;-76
2022/01/26 09:24:53;;;;;;;0.40;0.22;;;-0.80;99.90;;;;;;4990967;28;20417;-76
2022/01/26 09:27:19;;;;;;;0.40;0.20;;;-1.00;99.90;;;;;;4993370;28;20470;-76
2022/01/26 09:29:46;;;;;;;0.40;0.20;;;-0.90;99.90;;;;;;4992279;28;20395;-76
2022/01/26 09:32:13;;;;;;;0.40;0.20;;;-1.00;99.90;;;;;;4992987;28;20379;-76
2022/01/26 09:34:40;;;;;;;0.40;0.20;;;-0.80;99.90;;;;;;4992883;28;20390;-76
2022/01/26 09:37:08;;;;;;;0.40;0.20;;;-0.60;99.90;;;;;;4990489;28;21074;-76
2022/01/26 09:39:34;;;;;;;0.40;0.20;;;-0.80;99.90;;;;;;4992825;28;20447;-76
2022/01/26 09:42:01;;;;;;;0.40;0.20;;;-0.80;99.90;;;;;;4992124;28;20774;-76
2022/01/26 09:44:29;;;;;;;1.10;0.80;;;-0.80;99.90;;;;;;4990717;28;20450;-76
2022/01/26 09:46:54;;;;;;;0.40;0.25;;;-1.00;99.90;;;;;;4992119;28;20378;-76
2022/01/26 09:49:20;;;;;;;2.00;1.10;;;-1.10;99.90;;;;;;4992569;28;20408;-76
2022/01/26 09:51:49;;;;;;;0.50;0.50;;;-1.10;99.90;;;;;;4992778;28;20390;-76
2022/01/26 09:54:18;;;;;;;1.00;1.00;;;-0.80;99.90;;;;;;4990395;28;20390;-76
2022/01/26 09:56:50;;;;;;;0.90;0.90;;;-0.60;99.90;;;;;;4992590;28;20437;-76
2022/01/26 09:59:18;;;;;;;0.40;0.30;;;-0.70;99.90;;;;;;4978989;28;21015;-76
2022/01/26 10:01:47;;;;;;;0.40;0.20;;;-0.60;99.90;;;;;;4972948;28;20380;-76
2022/01/26 10:04:25;;;;;;;0.60;0.50;;;-0.70;99.90;;;;;;4972073;28;20416;-76
2022/01/26 10:07:26;;;;;;;0.40;0.20;;;-0.70;99.90;;;;;;4972398;28;20519;-75
2022/01/26 10:15:44;;;;;;;0.40;0.30;;;-0.70;99.90;;;;;;4972986;28;20951;-76
2022/01/26 10:18:15;;;;;;;0.40;0.20;;;-0.70;99.90;;;;;;4971982;28;20869;-76
2022/01/26 10:20:47;;;;;;;0.40;0.20;;;-0.70;99.90;;;;;;4972766;28;20400;-75
2022/01/26 10:23:17;;;;;;;0.40;0.30;;;-0.50;99.90;;;;;;4971857;28;20453;-76
2022/01/26 10:25:46;;;;;;;0.47;0.43;;;-0.40;99.90;;;;;;4972173;28;20427;-76
2022/01/26 10:28:14;;;;;;;0.57;0.57;;;-0.20;99.90;;;;;;4971938;28;20468;-77
2022/01/26 10:30:45;;;;;;;0.40;0.20;;;-0.30;99.90;;;;;;4972106;28;20793;-76
2022/01/26 10:33:12;;;;;;;0.40;0.30;;;-0.20;99.90;;;;;;4972015;28;20392;-77
2022/01/26 10:35:37;;;;;;;0.68;0.68;;;-0.20;99.90;;;;;;4970491;28;20412;-76
2022/01/26 10:38:04;;;;;;;0.40;0.20;;;-0.20;99.90;;;;;;4971148;28;20395;-76
2022/01/26 10:40:31;;;;;;;1.50;1.20;;;-0.10;99.90;;;;;;4971525;28;20392;-76
2022/01/26 10:42:59;;;;;;;0.90;0.70;;;-0.10;99.90;;;;;;4972330;28;20769;-76
2022/01/26 10:45:38;;;;;;;0.40;0.30;;;-0.30;99.90;;;;;;4971129;28;20431;-76
2022/01/26 10:48:16;;;;;;;0.40;0.20;;;-0.10;99.90;;;;;;4972305;28;20395;-76
2022/01/26 10:53:15;;;;;;;0.73;0.65;;;0.20;99.90;;;;;;4972238;28;20867;-76
2022/01/26 10:55:41;;;;;;;0.70;0.70;;;0.20;99.90;;;;;;4971081;28;21326;-76
2022/01/26 10:58:08;;;;;;;0.40;0.20;;;0.30;99.90;;;;;;4975170;28;20934;-76
2022/01/26 11:00:39;;;;;;;0.40;0.40;;;0.40;99.90;;;;;;4990541;28;20391;-76
2022/01/26 11:03:07;;;;;;;0.40;0.30;;;0.30;99.90;;;;;;4991405;28;20386;-76
2022/01/26 11:05:33;;;;;;;0.90;0.90;;;0.30;99.90;;;;;;4990140;28;20562;-76
2022/01/26 11:08:00;;;;;;;0.40;0.20;;;0.50;99.90;;;;;;4991198;28;20390;-76
2022/01/26 11:10:37;;;;;;;0.43;0.35;;;0.30;99.90;;;;;;4991433;28;20504;-77
2022/01/26 11:13:05;;;;;;;1.10;0.60;;;0.20;99.90;;;;;;4991414;28;20436;-76
2022/01/26 11:15:32;;;;;;;0.40;0.20;;;0.10;99.90;;;;;;4990661;28;20398;-77
2022/01/26 11:18:10;;;;;;;0.40;0.30;;;0.30;99.90;;;;;;4991459;28;20480;-76
2022/01/26 11:20:49;;;;;;;1.70;1.50;;;0.20;99.90;;;;;;4990572;28;20454;-77
2022/01/26 11:23:18;;;;;;;0.40;0.38;;;0.20;99.90;;;;;;4991637;28;20398;-76
2022/01/26 11:25:47;;;;;;;0.70;0.70;;;0.20;99.90;;;;;;4990849;28;20410;-75
2022/01/26 11:28:16;;;;;;;0.60;0.40;;;0.40;99.90;;;;;;4991442;28;20422;-77
2022/01/26 11:30:42;;;;;;;0.40;0.20;;;0.60;99.90;;;;;;4990453;28;20481;-77
2022/01/26 11:33:24;;;;;;;1.30;1.20;;;0.40;99.90;;;;;;4989868;28;20473;-76
2022/01/26 11:35:53;;;;;;;0.40;0.30;;;0.30;99.90;;;;;;4990200;28;20451;-77
2022/01/26 11:47:10;;;;;;;0.50;0.40;;;0.10;99.90;;;;;;4990062;28;20470;-77
2022/01/26 11:49:44;;;;;;;1.90;0.80;;;0.10;99.90;;;;;;4991323;28;20406;-76
2022/01/26 11:52:35;;;;;;;0.40;0.20;;;0.20;99.90;;;;;;4989161;28;20395;-77
2022/01/26 11:55:04;;;;;;;0.40;0.30;;;0.10;99.90;;;;;;4990272;28;20405;-77
2022/01/26 11:57:54;;;;;;;0.40;0.30;;;0.20;99.90;;;;;;4991070;28;20426;-77
2022/01/26 12:03:32;;;;;;;0.40;0.30;;;1.00;99.90;;;;;;4971416;28;20388;-78
2022/01/26 12:06:00;;;;;;;0.70;0.70;;;0.90;99.90;;;;;;4970364;28;20947;-78
2022/01/26 12:08:34;;;;;;;0.70;0.68;;;0.60;99.90;;;;;;4973506;28;20388;-77
2022/01/26 12:11:01;;;;;;;0.40;0.30;;;0.60;99.90;;;;;;4973895;28;20808;-78
2022/01/26 12:13:31;;;;;;;0.40;0.20;;;0.50;99.90;;;;;;4974499;28;20475;-78
2022/01/26 12:16:07;;;;;;;1.10;1.00;;;0.40;99.90;;;;;;4975089;28;20392;-77
2022/01/26 12:18:50;;;;;;;1.50;1.40;;;0.10;99.90;;;;;;4973908;28;20465;-77
2022/01/26 12:33:39;;;;;;;0.40;0.30;;;0.10;99.90;;;;;;4974848;28;20790;-75
2022/01/26 12:35:59;;;;;;;1.10;0.60;;;-0.10;99.90;;;;;;4974284;28;20811;-77
2022/01/26 12:38:40;;;;;;;1.38;0.75;;;0.00;99.90;;;;;;4988920;28;20403;-77
2022/01/26 12:43:44;;;;;;;0.40;0.20;;;0.10;99.90;;;;;;4973093;28;20392;-77
2022/01/26 12:46:31;;;;;;;0.50;0.50;;;-0.20;99.90;;;;;;4974592;28;20404;-78
2022/01/26 12:49:06;;;;;;;3.90;1.10;;;-0.30;99.90;;;;;;4974337;28;20496;-78
2022/01/26 12:51:42;;;;;;;1.30;1.00;;;-0.20;99.90;;;;;;4973626;28;20805;-77
2022/01/26 12:54:08;;;;;;;0.40;0.20;;;0.00;99.90;;;;;;4974489;28;20396;-77
2022/01/26 12:56:34;;;;;;;0.40;0.30;;;0.10;99.90;;;;;;4973535;28;20544;-77
2022/01/26 12:59:07;;;;;;;3.25;1.05;;;0.10;99.90;;;;;;4984280;28;20481;-76
2022/01/26 13:01:34;;;;;;;0.40;0.20;;;-0.10;99.90;;;;;;4992883;28;20422;-76
2022/01/26 13:04:03;;;;;;;0.70;0.70;;;-0.10;99.90;;;;;;4992103;28;20414;-76
2022/01/26 13:06:36;;;;;;;2.60;0.70;;;-0.20;99.90;;;;;;4992800;28;20430;-77
2022/01/26 13:09:25;;;;;;;0.40;0.20;;;-0.20;99.90;;;;;;4992144;28;20395;-77
2022/01/26 13:11:53;;;;;;;0.40;0.30;;;-0.40;99.90;;;;;;4993086;28;20439;-77
2022/01/26 13:14:25;;;;;;;0.40;0.40;;;0.00;99.90;;;;;;4993070;28;20394;-76
2022/01/26 13:25:31;;;;;;;0.40;0.30;;;-0.20;99.90;;;;;;4996986;28;20517;-77
2022/01/26 13:30:51;;;;;;;0.40;0.20;;;0.20;99.90;;;;;;4995272;28;20445;-75
2022/01/26 13:33:42;;;;;;;0.60;0.55;;;0.10;99.90;;;;;;4979052;28;20434;-75
2022/01/26 13:52:16;;;;;;;0.40;0.30;;;0.20;99.90;;;;;;5023475;28;20527;-76
2022/01/26 13:56:51;;;;;;;0.98;0.95;;;0.00;99.90;;;;;;5012173;28;20392;-76
2022/01/26 14:01:51;;;;;;;0.40;0.20;;;-0.10;99.90;;;;;;4992613;28;20420;-76
2022/01/26 14:04:18;;;;;;;0.70;0.70;;;-0.20;99.90;;;;;;4990470;28;20426;-76
2022/01/26 14:06:47;;;;;;;0.70;0.70;;;0.00;99.90;;;;;;4991894;28;20414;-75
2022/01/26 14:09:13;;;;;;;0.40;0.20;;;-0.10;99.90;;;;;;4991282;28;20387;-76
2022/01/26 14:11:39;;;;;;;1.00;0.90;;;0.00;99.90;;;;;;4991734;28;20408;-76
2022/01/26 14:14:08;;;;;;;2.60;0.90;;;0.00;99.90;;;;;;4995796;28;20461;-76
2022/01/26 14:16:39;;;;;;;0.40;0.20;;;-0.10;99.90;;;;;;5009968;28;20385;-76
2022/01/26 14:20:05;;;;;;;0.47;0.40;;;-0.10;99.90;;;;;;5011837;28;20906;-76
2022/01/26 14:22:18;;;;;;;0.40;0.20;;;0.00;99.90;;;;;;5008343;28;20721;-76
2022/01/26 14:27:33;;;;;;;0.60;0.50;;;-0.10;99.90;;;;;;5010937;28;20380;-76
2022/01/26 14:30:13;;;;;;;0.40;0.20;;;-0.10;99.90;;;;;;5011419;28;20389;-76
2022/01/26 14:59:57;;;;;;;0.40;0.20;;;-0.20;99.90;;;;;;5011491;28;20475;-76
2022/01/26 15:42:19;;;;;;;0.40;0.20;;;0.00;99.90;;;;;;4991282;28;20501;-76
2022/01/26 16:08:27;;;;;;;0.50;0.40;;;-0.40;99.90;;;;;;4987833;28;20897;-75
2022/01/26 16:37:56;;;;;;;0.40;0.20;;;-0.40;99.90;;;;;;4974490;28;20859;-78
2022/01/26 18:05:33;;;;;;;0.40;0.20;;;-0.20;99.90;;;;;;5005519;28;20470;-75
2022/01/26 18:26:14;;;;;;;0.50;0.50;;;0.00;99.90;;;;;;4987957;28;20419;-75
2022/01/26 18:50:09;;;;;;;0.60;0.40;;;-0.30;99.90;;;;;;4987855;28;20387;-76
2022/01/26 18:52:37;;;;;;;0.50;0.40;;;-0.30;99.90;;;;;;4975714;28;20400;-76
2022/01/26 18:55:05;;;;;;;0.40;0.28;;;-0.20;99.90;;;;;;4983134;28;20429;-76
2022/01/26 18:57:30;;;;;;;0.40;0.20;;;-0.30;99.90;;;;;;4981483;28;20383;-77
2022/01/26 18:59:56;;;;;;;0.70;0.70;;;-0.50;99.90;;;;;;4981140;28;20393;-76
2022/01/26 19:02:25;;;;;;;0.40;0.30;;;-0.20;99.90;;;;;;4979847;28;20493;-75
2022/01/26 19:04:51;;;;;;;0.40;0.20;;;-0.40;99.90;;;;;;4985383;28;20528;-75
2022/01/26 19:07:17;;;;;;;0.75;0.75;;;-0.30;99.90;;;;;;4989099;28;20773;-76
2022/01/26 19:09:47;;;;;;;1.10;1.00;;;-0.30;99.90;;;;;;4988960;28;20382;-77
2022/01/26 19:12:15;;;;;;;0.93;0.93;;;-0.50;99.90;;;;;;4978605;28;20394;-78
2022/01/26 19:14:47;;;;;;;1.40;0.70;;;-0.50;99.90;;;;;;4979324;28;20844;-78
2022/01/26 19:22:44;;;;;;;0.40;0.20;;;-0.30;99.90;;;;;;4983947;28;20477;-77
2022/01/26 19:25:23;;;;;;;0.80;0.80;;;-0.40;99.90;;;;;;4982742;28;20473;-77
2022/01/26 19:28:01;;;;;;;1.00;0.90;;;-0.40;99.90;;;;;;4988644;28;20791;-77
2022/01/26 19:46:48;;;;;;;0.40;0.20;;;-0.20;99.90;;;;;;4988201;28;20384;-77
2022/01/26 19:52:08;;;;;;;0.40;0.27;;;-0.30;99.90;;;;;;4983498;28;20427;-77
2022/01/26 19:54:36;;;;;;;0.40;0.30;;;-0.30;99.90;;;;;;4982270;28;20414;-76
2022/01/26 19:57:03;;;;;;;1.88;0.60;;;-0.30;99.90;;;;;;4995684;28;20392;-77
2022/01/26 19:59:29;;;;;;;1.20;0.90;;;-0.40;99.90;;;;;;4997998;28;20403;-77
2022/01/26 20:01:55;;;;;;;0.40;0.40;;;-0.40;99.90;;;;;;4990304;28;20394;-77
2022/01/26 20:04:21;;;;;;;0.40;0.30;;;-0.40;99.90;;;;;;4978469;28;20410;-78
2022/01/26 20:06:48;;;;;;;0.40;0.20;;;-0.30;99.90;;;;;;4976953;28;20897;-76